Aérodrome :
LOGIN :

S'inscrire | Disclaimer

   EN    FR    IT 

 










Légende :    VFR   VFR Marginal   IFR   IFR Intensif   IFR Très Intensif
Visi : 
Plafond : 
>= 8 km
>= 3000ft
5 à 8 km
1000 à 3000 ft
1500m à 5 km
500 à 1000 ft
800 à 1500m
200 à 500 ft
< 800m
< 200 ft
Symboles :   Orages  Brouillard  Fortes neiges  Fortes précipitations  Vent > 20 kt
SIGMETs :   Divers  Orages  Givrage  Turbulence  Onde Orograph.  Cendres Volcan.







- Altitude de l'aérodrome : 171 ft
- Code IATA : EGC
- Voir les cartes d'approche


LFBE - Bergerac

DERNIER METAR :
  • 212330Z AUTO VRB03KT 9999 OVC020 02/M01 Q1022

METARs EXPIRÉS :
  • 212300Z AUTO 01005KT 9999 OVC020 02/M01 Q1022
  • 212230Z AUTO 36004KT 330V030 9999 OVC017 02/M00 Q1022
  • 212200Z AUTO 01004KT 9999 OVC019 02/M00 Q1022
  • 212130Z AUTO 35005KT 9999 BKN017 OVC022 02/M00 Q1023
  • 212100Z AUTO 28004KT 9999 OVC014 02/00 Q1023 TEMPO 0800 FG NSC
  • 212030Z AUTO 28003KT 9999 OVC014 01/M00 Q1023 TEMPO 0800 FG NSC

TAF AMD TAF LFBE
Valide du 21 à 19h jusqu'au 22 à 18h UTC


211945Z 2119/2218 34005KT 9999 BKN020
TEMPO 2119/2122 OVC015
PROB40
TEMPO 2122/2204 VRB02KT 2000 BR NSC
PROB30
TEMPO 2122/2203 0800 FG
BECMG 2204/2206 18008KT
TEMPO 2208/2215 2500 -RA BKN005 OVC015
FM221500 31012KT 9999 BKN025
PROB40
TEMPO 2215/2218 2500 SHRA BKN020TCU
Pas de NOTAMs connus pour ce terrain.



MET'MAP, la Météo Aéronautique d'un coup d'oeil ! - Copyright ORBIFLY Décembre 2007 - Disclaimer

ORBIFLY MET'MAP TEAM :

Programmation & Développement : Alexandra Zaïnal
Conception & Développement : Baudouin d'Aumeries
Co-Programmation & Développement : Marc-Olivier Méhu
Soutien technique & logistique : Manuel Goepfert

Contact : metmap@orbifly.com




SOURCES & CREDITS :

   NOAA